createdAt,value
2022-08-11T00:00:09.179Z,21.40
2022-08-11T00:02:15.875Z,21.40
2022-08-11T00:04:22.462Z,21.36
2022-08-11T00:06:30.451Z,21.33
2022-08-11T00:08:38.982Z,21.32
2022-08-11T00:10:44.033Z,21.28
2022-08-11T00:12:56.827Z,21.24
2022-08-11T00:15:03.458Z,21.21
2022-08-11T00:17:11.877Z,21.20
2022-08-11T00:20:14.102Z,21.21
2022-08-11T00:22:04.367Z,21.15
2022-08-11T00:24:14.030Z,21.14
2022-08-11T00:26:19.483Z,21.11
2022-08-11T00:28:27.731Z,21.07
2022-08-11T00:30:42.259Z,21.03
2022-08-11T00:32:56.327Z,20.99
2022-08-11T00:35:53.752Z,20.95
2022-08-11T00:37:29.140Z,20.92
2022-08-11T00:39:45.422Z,20.91
2022-08-11T00:42:04.082Z,20.90
2022-08-11T00:44:36.086Z,20.87
2022-08-11T00:46:53.527Z,20.85
2022-08-11T00:49:12.380Z,20.84
2022-08-11T00:51:28.291Z,20.83
2022-08-11T00:54:05.769Z,20.80
2022-08-11T00:56:47.954Z,20.79
2022-08-11T00:59:35.497Z,20.75
2022-08-11T01:01:59.054Z,20.71
2022-08-11T01:04:29.748Z,20.67
2022-08-11T01:06:52.337Z,20.65
2022-08-11T01:09:22.626Z,20.65
2022-08-11T01:11:58.810Z,20.65
2022-08-11T01:14:43.210Z,20.62
2022-08-11T01:17:30.864Z,20.57
2022-08-11T01:20:47.861Z,20.58
2022-08-11T01:23:07.483Z,20.55
2022-08-11T01:25:57.636Z,20.52
2022-08-11T01:28:41.590Z,20.41
2022-08-11T01:31:23.760Z,20.38
2022-08-11T01:33:59.672Z,20.26
2022-08-11T01:36:56.582Z,20.27
2022-08-11T01:39:35.232Z,20.28
2022-08-11T01:42:15.039Z,20.29
2022-08-11T01:44:44.800Z,20.30
2022-08-11T01:47:08.961Z,20.32
2022-08-11T01:50:06.967Z,20.32
2022-08-11T01:52:07.446Z,20.32
2022-08-11T01:54:21.149Z,20.33
2022-08-11T01:56:57.196Z,20.32
2022-08-11T01:59:13.969Z,20.28
2022-08-11T02:01:40.986Z,20.27
2022-08-11T02:03:53.575Z,20.19
2022-08-11T02:06:03.285Z,20.08
2022-08-11T02:08:33.160Z,20.08
2022-08-11T02:10:59.195Z,20.07
2022-08-11T02:13:15.199Z,20.07
2022-08-11T02:15:29.981Z,20.06
2022-08-11T02:17:56.769Z,20.06
2022-08-11T02:20:22.843Z,20.05
2022-08-11T02:22:56.990Z,20.00
2022-08-11T02:25:09.106Z,19.98
2022-08-11T02:27:21.901Z,19.96
2022-08-11T02:29:35.185Z,19.93
2022-08-11T02:32:24.094Z,19.92
2022-08-11T02:34:59.305Z,19.93
2022-08-11T02:37:23.810Z,19.97
2022-08-11T02:39:42.190Z,19.96
2022-08-11T02:42:42.266Z,19.95
2022-08-11T02:44:52.779Z,19.88
2022-08-11T02:47:05.906Z,19.83
2022-08-11T02:49:35.153Z,19.83
2022-08-11T02:51:53.888Z,19.78
2022-08-11T02:54:10.694Z,19.75
2022-08-11T02:56:25.544Z,19.72
2022-08-11T02:58:45.465Z,19.68
2022-08-11T03:00:59.238Z,19.64
2022-08-11T03:03:18.611Z,19.60
2022-08-11T03:05:40.726Z,19.60
2022-08-11T03:08:00.955Z,19.58
2022-08-11T03:10:12.098Z,19.56
2022-08-11T03:12:40.724Z,19.57
2022-08-11T03:15:06.588Z,19.58
2022-08-11T03:17:26.070Z,19.57
2022-08-11T03:19:47.617Z,19.58
2022-08-11T03:22:03.494Z,19.59
2022-08-11T03:24:18.344Z,19.59
2022-08-11T03:26:31.026Z,19.59
2022-08-11T03:28:39.726Z,19.60
2022-08-11T03:30:56.528Z,19.61
2022-08-11T03:33:23.469Z,19.60
2022-08-11T03:35:29.043Z,19.57
2022-08-11T03:37:53.296Z,19.57
2022-08-11T03:40:06.208Z,19.56
2022-08-11T03:42:16.857Z,19.54
2022-08-11T03:44:50.695Z,19.51
2022-08-11T03:47:13.642Z,19.44
2022-08-11T03:49:34.067Z,19.39
2022-08-11T03:51:54.380Z,19.38
2022-08-11T03:54:13.335Z,19.34
2022-08-11T03:56:56.101Z,19.25
2022-08-11T03:59:48.166Z,19.22
2022-08-11T04:02:40.528Z,19.19
2022-08-11T04:05:12.903Z,19.15
2022-08-11T04:07:42.627Z,19.13
2022-08-11T04:10:25.597Z,19.15
2022-08-11T04:13:10.557Z,19.18
2022-08-11T04:16:10.962Z,19.21
2022-08-11T04:18:49.834Z,19.23
2022-08-11T04:21:39.676Z,19.22
2022-08-11T04:24:37.595Z,19.23
2022-08-11T04:27:21.435Z,19.22
2022-08-11T04:30:03.143Z,19.20
2022-08-11T04:32:31.108Z,19.18
2022-08-11T04:34:49.779Z,19.17
2022-08-11T04:37:27.509Z,19.19
2022-08-11T04:39:51.379Z,19.19
2022-08-11T04:42:47.774Z,19.19
2022-08-11T04:45:23.216Z,19.20
2022-08-11T04:48:04.306Z,19.22
2022-08-11T04:50:39.438Z,19.20
2022-08-11T04:53:34.978Z,19.26
2022-08-11T04:56:17.443Z,19.27
2022-08-11T04:58:41.370Z,19.25
2022-08-11T05:01:12.089Z,19.28
2022-08-11T05:03:49.431Z,19.32
2022-08-11T05:06:40.123Z,19.37
2022-08-11T05:09:23.922Z,19.40
2022-08-11T05:12:02.393Z,19.42
2022-08-11T05:14:54.539Z,19.45
2022-08-11T05:17:20.941Z,19.49
2022-08-11T05:19:38.261Z,19.51
2022-08-11T05:22:03.397Z,19.53
2022-08-11T05:24:34.489Z,19.56
2022-08-11T05:26:59.942Z,19.60
2022-08-11T05:29:21.166Z,19.63
2022-08-11T05:31:56.274Z,19.71
2022-08-11T05:34:18.226Z,19.76
2022-08-11T05:36:31.335Z,19.78
2022-08-11T05:38:52.830Z,19.84
2022-08-11T05:41:11.994Z,19.89
2022-08-11T05:43:30.318Z,19.95
2022-08-11T05:46:03.770Z,20.00
2022-08-11T05:48:23.140Z,20.06
2022-08-11T05:50:41.095Z,20.12
2022-08-11T05:53:02.067Z,20.14
2022-08-11T05:55:25.731Z,20.19
2022-08-11T05:57:49.740Z,20.24
2022-08-11T06:00:03.101Z,20.44
2022-08-11T06:02:11.870Z,20.65
2022-08-11T06:04:21.777Z,20.76
2022-08-11T06:06:30.214Z,20.82
2022-08-11T06:08:38.497Z,20.82
2022-08-11T06:10:48.346Z,20.86
2022-08-11T06:12:56.531Z,20.87
2022-08-11T06:15:05.969Z,20.91
2022-08-11T06:17:11.622Z,20.97
2022-08-11T06:19:17.087Z,20.98
2022-08-11T06:21:22.882Z,21.06
2022-08-11T06:23:33.594Z,21.16
2022-08-11T06:25:41.350Z,21.28
2022-08-11T06:27:49.057Z,21.30
2022-08-11T06:29:55.910Z,21.29
2022-08-11T06:32:03.622Z,21.37
2022-08-11T06:34:27.381Z,21.45
2022-08-11T06:36:38.587Z,21.53
2022-08-11T06:38:58.943Z,21.61
2022-08-11T06:41:23.090Z,21.67
2022-08-11T06:43:33.668Z,21.77
2022-08-11T06:45:49.661Z,21.90
2022-08-11T06:47:56.180Z,21.96
2022-08-11T06:50:16.313Z,22.02
2022-08-11T06:52:45.123Z,22.17
2022-08-11T06:55:04.401Z,22.22
2022-08-11T06:57:30.851Z,22.29
2022-08-11T06:59:52.869Z,22.32
2022-08-11T07:02:06.090Z,22.42
2022-08-11T07:04:13.249Z,22.54
2022-08-11T07:06:51.226Z,22.68
2022-08-11T07:09:39.966Z,22.82
2022-08-11T07:12:16.312Z,22.93
2022-08-11T07:14:38.931Z,23.02
2022-08-11T07:16:49.034Z,23.07
2022-08-11T07:19:08.343Z,23.16
2022-08-11T07:22:00.441Z,23.28
2022-08-11T07:24:10.900Z,23.36
2022-08-11T07:26:29.060Z,23.39
2022-08-11T07:28:49.904Z,23.47
2022-08-11T07:30:59.687Z,23.52
2022-08-11T07:33:08.028Z,23.65
2022-08-11T07:35:15.915Z,23.78
2022-08-11T07:37:22.869Z,23.84
2022-08-11T07:39:29.977Z,23.92
2022-08-11T07:41:39.170Z,23.98
2022-08-11T07:43:47.256Z,24.03
2022-08-11T07:46:04.643Z,24.14
2022-08-11T07:48:26.095Z,24.23
2022-08-11T07:50:45.112Z,24.31
2022-08-11T07:52:52.858Z,24.42
2022-08-11T07:55:00.825Z,24.50
2022-08-11T07:57:58.502Z,24.57
2022-08-11T08:00:04.651Z,24.69
2022-08-11T08:02:34.149Z,24.78
2022-08-11T08:04:56.996Z,24.90
2022-08-11T08:07:16.571Z,24.95
2022-08-11T08:09:36.391Z,24.95
2022-08-11T08:11:54.651Z,24.95
2022-08-11T08:14:12.660Z,24.96
2022-08-11T08:16:30.090Z,25.07
2022-08-11T08:18:37.259Z,25.18
2022-08-11T08:20:50.178Z,25.22
2022-08-11T08:22:57.351Z,25.25
2022-08-11T08:25:02.894Z,25.26
2022-08-11T08:27:08.734Z,25.33
2022-08-11T08:29:26.085Z,25.33
2022-08-11T08:31:31.190Z,25.40
2022-08-11T08:33:37.113Z,25.36
2022-08-11T08:35:55.744Z,25.35
2022-08-11T08:38:01.727Z,25.38
2022-08-11T08:40:09.204Z,25.43
2022-08-11T08:42:20.192Z,25.53
2022-08-11T08:44:38.429Z,25.48
2022-08-11T08:46:47.560Z,25.55
2022-08-11T08:48:53.735Z,25.62
2022-08-11T08:51:19.493Z,25.69
2022-08-11T08:53:32.016Z,25.64
2022-08-11T08:55:40.270Z,25.68
2022-08-11T08:57:49.123Z,25.75
2022-08-11T08:59:55.021Z,25.85
2022-08-11T09:02:03.004Z,25.93
2022-08-11T09:04:12.269Z,26.01
2022-08-11T09:06:22.216Z,26.04
2022-08-11T09:08:28.578Z,26.00
2022-08-11T09:10:34.142Z,26.04
2022-08-11T09:12:39.217Z,26.12
2022-08-11T09:15:03.736Z,26.21
2022-08-11T09:17:08.623Z,26.32
2022-08-11T09:19:17.672Z,26.26
2022-08-11T09:21:44.607Z,26.34
2022-08-11T09:24:12.878Z,26.42
2022-08-11T09:26:35.019Z,26.50
2022-08-11T09:28:40.575Z,26.49
2022-08-11T09:30:46.664Z,26.52
2022-08-11T09:32:51.655Z,26.61
2022-08-11T09:34:57.220Z,26.53
2022-08-11T09:37:53.581Z,26.54
2022-08-11T09:39:57.370Z,26.52
2022-08-11T09:42:04.709Z,26.46
2022-08-11T09:44:24.796Z,26.40
2022-08-11T09:46:31.232Z,26.37
2022-08-11T09:48:40.338Z,26.43
2022-08-11T09:50:45.375Z,26.42
2022-08-11T09:53:35.303Z,26.47
2022-08-11T09:55:19.189Z,26.56
2022-08-11T09:57:37.712Z,26.61
2022-08-11T09:59:43.620Z,26.51
2022-08-11T10:01:51.108Z,26.66
2022-08-11T10:04:02.450Z,26.81
2022-08-11T10:06:20.967Z,26.83
2022-08-11T10:08:43.749Z,26.91
2022-08-11T10:10:50.189Z,26.99
2022-08-11T10:13:04.294Z,27.00
2022-08-11T10:15:24.889Z,27.03
2022-08-11T10:17:33.553Z,27.05
2022-08-11T10:19:40.298Z,27.04
2022-08-11T10:22:08.416Z,27.03
2022-08-11T10:24:28.386Z,27.01
2022-08-11T10:26:47.794Z,26.99
2022-08-11T10:29:11.931Z,27.00
2022-08-11T10:31:45.113Z,26.99
2022-08-11T10:34:06.232Z,26.96
2022-08-11T10:36:16.615Z,26.93
2022-08-11T10:38:22.076Z,27.00
2022-08-11T10:40:30.029Z,27.11
2022-08-11T10:42:57.785Z,27.17
2022-08-11T10:45:26.465Z,27.15
2022-08-11T10:47:35.835Z,27.26
2022-08-11T10:49:41.059Z,27.35
2022-08-11T10:51:59.214Z,27.30
2022-08-11T10:54:16.890Z,27.33
2022-08-11T10:56:37.470Z,27.35
2022-08-11T10:58:50.113Z,27.41
2022-08-11T11:00:58.873Z,27.50
2022-08-11T11:03:23.230Z,27.53
2022-08-11T11:05:33.386Z,27.60
2022-08-11T11:07:46.094Z,27.62
2022-08-11T11:09:53.339Z,27.75
2022-08-11T11:12:19.472Z,27.87
2022-08-11T11:14:46.725Z,27.92
2022-08-11T11:17:07.481Z,27.97
2022-08-11T11:19:20.859Z,28.03
2022-08-11T11:21:27.849Z,27.96
2022-08-11T11:23:47.553Z,27.92
2022-08-11T11:26:27.322Z,27.86
2022-08-11T11:28:50.121Z,27.87
2022-08-11T11:31:09.300Z,27.88
2022-08-11T11:33:22.348Z,27.93
2022-08-11T11:35:44.697Z,28.03
2022-08-11T11:38:03.713Z,28.12
2022-08-11T11:40:13.347Z,28.14
2022-08-11T11:42:21.275Z,28.13
2022-08-11T11:44:29.782Z,28.08
2022-08-11T11:46:38.556Z,27.95
2022-08-11T11:48:45.022Z,28.02
2022-08-11T11:50:50.111Z,28.08
2022-08-11T11:52:57.256Z,28.09
2022-08-11T11:55:03.508Z,28.03
2022-08-11T11:57:20.913Z,28.00
2022-08-11T11:59:43.458Z,28.10
2022-08-11T12:01:50.281Z,28.17
2022-08-11T12:04:00.086Z,28.23
2022-08-11T12:06:06.416Z,28.28
2022-08-11T12:08:16.359Z,28.28
2022-08-11T12:10:21.712Z,28.28
2022-08-11T12:12:40.008Z,28.35
2022-08-11T12:14:47.799Z,28.35
2022-08-11T12:16:53.473Z,28.37
2022-08-11T12:19:01.227Z,28.39
2022-08-11T12:21:07.778Z,28.26
2022-08-11T12:23:25.307Z,27.97
2022-08-11T12:25:42.626Z,28.02
2022-08-11T12:27:47.735Z,28.02
2022-08-11T12:30:05.965Z,28.08
2022-08-11T12:32:11.902Z,28.20
2022-08-11T12:34:18.542Z,28.31
2022-08-11T12:36:24.241Z,28.29
2022-08-11T12:38:30.104Z,28.25
2022-08-11T12:41:12.172Z,28.30
2022-08-11T12:43:38.415Z,28.36
2022-08-11T12:45:47.682Z,28.46
2022-08-11T12:48:37.830Z,28.47
2022-08-11T12:50:44.870Z,28.48
2022-08-11T12:52:57.141Z,28.42
2022-08-11T12:55:11.026Z,28.38
2022-08-11T12:57:36.541Z,28.34
2022-08-11T12:59:56.391Z,28.38
2022-08-11T13:02:17.699Z,28.46
2022-08-11T13:04:35.098Z,28.49
2022-08-11T13:06:40.943Z,28.49
2022-08-11T13:08:48.347Z,28.49
2022-08-11T13:11:06.730Z,28.56
2022-08-11T13:13:55.698Z,28.61
2022-08-11T13:15:39.123Z,28.63
2022-08-11T13:17:48.646Z,28.64
2022-08-11T13:19:54.189Z,28.69
2022-08-11T13:22:00.858Z,28.71
2022-08-11T13:24:06.026Z,28.75
2022-08-11T13:26:11.681Z,28.86
2022-08-11T13:28:16.821Z,28.96
2022-08-11T13:30:49.394Z,29.04
2022-08-11T13:32:57.591Z,29.16
2022-08-11T13:35:02.532Z,29.25
2022-08-11T13:37:15.663Z,29.37
2022-08-11T13:39:21.150Z,29.47
2022-08-11T13:41:45.291Z,29.61
2022-08-11T13:43:50.219Z,29.68
2022-08-11T13:46:17.280Z,29.67
2022-08-11T13:48:24.779Z,29.70
2022-08-11T13:50:50.794Z,29.79
2022-08-11T13:52:55.846Z,29.82
2022-08-11T13:55:02.372Z,29.85
2022-08-11T13:57:13.855Z,29.88
2022-08-11T13:59:51.807Z,30.03
2022-08-11T14:02:19.216Z,30.09
2022-08-11T14:04:33.609Z,30.14
2022-08-11T14:06:41.019Z,30.23
2022-08-11T14:08:47.390Z,30.39
2022-08-11T14:11:19.992Z,30.48
2022-08-11T14:13:42.246Z,30.51
2022-08-11T14:15:55.455Z,30.61
2022-08-11T14:18:05.571Z,30.71
2022-08-11T14:20:38.337Z,30.83
2022-08-11T14:22:43.520Z,30.86
2022-08-11T14:24:50.405Z,30.78
2022-08-11T14:26:56.924Z,30.81
2022-08-11T14:29:04.400Z,30.79
2022-08-11T14:31:10.886Z,30.78
2022-08-11T14:33:20.273Z,30.80
2022-08-11T14:35:30.990Z,30.86
2022-08-11T14:37:37.981Z,30.83
2022-08-11T14:39:47.033Z,30.80
2022-08-11T14:42:11.190Z,30.93
2022-08-11T14:44:30.565Z,30.93
2022-08-11T14:46:49.137Z,30.94
2022-08-11T14:48:54.561Z,31.11
2022-08-11T14:51:03.103Z,31.27
2022-08-11T14:53:11.522Z,31.23
2022-08-11T14:55:35.598Z,31.23
2022-08-11T14:58:04.787Z,31.07
2022-08-11T15:00:13.013Z,31.12
2022-08-11T15:02:31.716Z,31.33
2022-08-11T15:04:37.437Z,31.27
2022-08-11T15:06:45.453Z,31.28
2022-08-11T15:09:00.474Z,31.48
2022-08-11T15:11:26.002Z,31.68
2022-08-11T15:13:33.272Z,31.76
2022-08-11T15:15:51.508Z,31.85
2022-08-11T15:17:58.364Z,31.86
2022-08-11T15:20:17.831Z,31.98
2022-08-11T15:22:37.693Z,31.98
2022-08-11T15:24:42.769Z,31.96
2022-08-11T15:27:02.949Z,31.96
2022-08-11T15:29:23.462Z,31.88
2022-08-11T15:31:49.453Z,31.76
2022-08-11T15:34:09.520Z,31.88
2022-08-11T15:36:29.523Z,32.08
2022-08-11T15:38:42.863Z,32.21
2022-08-11T15:41:00.360Z,32.24
2022-08-11T15:43:28.450Z,32.28
2022-08-11T15:45:47.638Z,32.39
2022-08-11T15:48:05.577Z,32.44
2022-08-11T15:50:16.328Z,32.47
2022-08-11T15:52:25.733Z,32.50
2022-08-11T15:54:36.347Z,32.72
2022-08-11T15:56:44.887Z,32.57
2022-08-11T15:59:41.176Z,32.57
2022-08-11T16:01:44.295Z,32.57
2022-08-11T16:04:08.726Z,32.61
2022-08-11T16:06:15.801Z,32.57
2022-08-11T16:08:30.280Z,32.41
2022-08-11T16:10:44.854Z,32.46
2022-08-11T16:13:18.025Z,32.51
2022-08-11T16:15:35.393Z,32.47
2022-08-11T16:17:47.134Z,32.32
2022-08-11T16:19:54.679Z,32.15
2022-08-11T16:22:00.355Z,31.93
2022-08-11T16:25:58.225Z,31.86
2022-08-11T16:27:10.927Z,31.64
2022-08-11T16:29:05.637Z,31.39
2022-08-11T16:31:12.097Z,31.18
2022-08-11T16:33:47.913Z,30.94
2022-08-11T16:35:57.152Z,30.74
2022-08-11T16:38:16.249Z,30.53
2022-08-11T16:40:23.402Z,30.36
2022-08-11T16:43:05.309Z,30.27
2022-08-11T16:45:22.111Z,29.98
2022-08-11T16:48:02.213Z,29.88
2022-08-11T16:49:53.963Z,29.70
2022-08-11T16:51:58.680Z,29.61
2022-08-11T16:54:06.152Z,29.48
2022-08-11T16:56:16.946Z,29.47
2022-08-11T16:58:39.068Z,29.44
2022-08-11T17:00:44.333Z,29.32
2022-08-11T17:03:06.823Z,29.31
2022-08-11T17:05:28.135Z,29.30
2022-08-11T17:07:46.008Z,29.23
2022-08-11T17:10:06.157Z,29.21
2022-08-11T17:12:46.465Z,29.17
2022-08-11T17:14:58.157Z,29.10
2022-08-11T17:17:05.408Z,29.05
2022-08-11T17:19:16.163Z,29.02
2022-08-11T17:21:25.746Z,29.00
2022-08-11T17:23:43.876Z,28.98
2022-08-11T17:26:03.250Z,28.96
2022-08-11T17:28:10.424Z,28.91
2022-08-11T17:30:19.074Z,28.85
2022-08-11T17:32:56.104Z,28.78
2022-08-11T17:35:16.706Z,28.75
2022-08-11T17:37:22.907Z,28.69
2022-08-11T17:39:31.962Z,28.65
2022-08-11T17:41:55.245Z,28.66
2022-08-11T17:44:14.526Z,28.65
2022-08-11T17:46:35.520Z,28.60
2022-08-11T17:48:47.543Z,28.53
2022-08-11T17:50:55.274Z,28.51
2022-08-11T17:53:14.303Z,28.48
2022-08-11T17:55:52.040Z,28.43
2022-08-11T17:58:11.282Z,28.33
2022-08-11T18:00:16.903Z,28.27
2022-08-11T18:02:39.164Z,28.24
2022-08-11T18:04:46.213Z,28.17
2022-08-11T18:06:52.706Z,28.15
2022-08-11T18:09:10.585Z,28.09
2022-08-11T18:12:10.340Z,28.04
2022-08-11T18:14:06.932Z,27.98
2022-08-11T18:16:25.417Z,27.97
2022-08-11T18:18:45.981Z,27.90
2022-08-11T18:21:03.523Z,27.81
2022-08-11T18:23:46.030Z,27.78
2022-08-11T18:26:07.104Z,27.75
2022-08-11T18:28:28.294Z,27.69
2022-08-11T18:30:49.053Z,27.64
2022-08-11T18:35:54.152Z,27.53
2022-08-11T18:38:14.077Z,27.46
2022-08-11T18:40:35.318Z,27.41
2022-08-11T18:42:55.687Z,27.37
2022-08-11T18:45:15.787Z,27.34
2022-08-11T18:47:37.253Z,27.28
2022-08-11T18:50:03.996Z,27.23
2022-08-11T18:52:27.162Z,27.20
2022-08-11T18:54:44.695Z,27.15
2022-08-11T18:57:03.345Z,27.12
2022-08-11T18:59:23.978Z,27.07
2022-08-11T19:01:45.901Z,27.03
2022-08-11T19:04:11.130Z,26.99
2022-08-11T19:06:40.825Z,26.94
2022-08-11T19:09:07.174Z,26.91
2022-08-11T19:11:27.149Z,26.86
2022-08-11T19:13:49.812Z,26.84
2022-08-11T19:16:09.676Z,26.79
2022-08-11T19:18:32.048Z,26.76
2022-08-11T19:20:51.840Z,26.68
2022-08-11T19:23:11.808Z,26.66
2022-08-11T19:25:34.995Z,26.60
2022-08-11T19:27:55.892Z,26.55
2022-08-11T19:30:14.566Z,26.47
2022-08-11T19:32:34.109Z,26.41
2022-08-11T19:34:52.131Z,26.39
2022-08-11T19:37:10.068Z,26.34
2022-08-11T19:39:28.925Z,26.31
2022-08-11T19:41:57.216Z,26.26
2022-08-11T19:44:16.698Z,26.18
2022-08-11T19:46:37.849Z,26.17
2022-08-11T19:48:56.934Z,26.10
2022-08-11T19:51:15.147Z,26.06
2022-08-11T19:53:33.840Z,26.00
2022-08-11T19:55:51.573Z,25.92
2022-08-11T19:58:12.504Z,25.84
2022-08-11T20:00:33.345Z,25.71
2022-08-11T20:02:50.686Z,25.61
2022-08-11T20:05:08.024Z,25.55
2022-08-11T20:07:27.021Z,25.49
2022-08-11T20:10:05.140Z,25.42
2022-08-11T20:12:24.562Z,25.38
2022-08-11T20:14:56.038Z,25.36
2022-08-11T20:17:15.135Z,25.32
2022-08-11T20:19:54.986Z,25.32
2022-08-11T20:22:12.835Z,25.28
2022-08-11T20:24:32.896Z,25.24
2022-08-11T20:26:51.682Z,25.21
2022-08-11T20:29:10.903Z,25.17
2022-08-11T20:31:31.757Z,25.13
2022-08-11T20:33:49.589Z,25.08
2022-08-11T20:36:08.017Z,25.05
2022-08-11T20:38:27.048Z,25.02
2022-08-11T20:40:45.982Z,24.98
2022-08-11T20:43:04.463Z,24.94
2022-08-11T20:45:25.271Z,24.90
2022-08-11T20:47:59.041Z,24.89
2022-08-11T20:50:20.379Z,24.82
2022-08-11T20:52:42.761Z,24.76
2022-08-11T20:55:00.898Z,24.74
2022-08-11T20:57:19.622Z,24.71
2022-08-11T20:59:56.253Z,24.66
2022-08-11T21:02:15.706Z,24.66
2022-08-11T21:04:35.978Z,24.65
2022-08-11T21:06:56.632Z,24.59
2022-08-11T21:09:20.919Z,24.59
2022-08-11T21:11:42.398Z,24.56
2022-08-11T21:14:03.932Z,24.51
2022-08-11T21:16:26.486Z,24.48
2022-08-11T21:18:46.583Z,24.42
2022-08-11T21:21:06.981Z,24.42
2022-08-11T21:23:27.389Z,24.37
2022-08-11T21:25:51.138Z,24.36
2022-08-11T21:28:14.348Z,24.35
2022-08-11T21:30:31.614Z,24.31
2022-08-11T21:32:49.264Z,24.30
2022-08-11T21:35:07.613Z,24.24
2022-08-11T21:37:31.055Z,24.23
2022-08-11T21:39:50.542Z,24.18
2022-08-11T21:42:09.096Z,24.15
2022-08-11T21:44:26.744Z,24.09
2022-08-11T21:46:45.898Z,24.05
2022-08-11T21:49:04.430Z,24.00
2022-08-11T21:51:21.765Z,23.93
2022-08-11T21:53:42.501Z,23.88
2022-08-11T21:56:00.236Z,23.81
2022-08-11T21:58:18.107Z,23.76
2022-08-11T22:00:35.422Z,23.71
2022-08-11T22:02:54.156Z,23.65
2022-08-11T22:05:11.860Z,23.61
2022-08-11T22:07:29.286Z,23.55
2022-08-11T22:09:51.161Z,23.49
2022-08-11T22:12:30.678Z,23.41
2022-08-11T22:14:46.959Z,23.29
2022-08-11T22:17:04.626Z,23.22
2022-08-11T22:19:22.523Z,23.19
2022-08-11T22:22:03.447Z,23.13
2022-08-11T22:24:30.331Z,23.04
2022-08-11T22:26:51.299Z,22.99
2022-08-11T22:29:08.747Z,22.92
2022-08-11T22:31:27.848Z,22.86
2022-08-11T22:34:02.684Z,22.77
2022-08-11T22:36:22.953Z,22.71
2022-08-11T22:38:42.162Z,22.67
2022-08-11T22:40:59.947Z,22.63
2022-08-11T22:43:19.802Z,22.60
2022-08-11T22:45:37.118Z,22.57
2022-08-11T22:47:56.595Z,22.56
2022-08-11T22:50:14.207Z,22.52
2022-08-11T22:52:32.227Z,22.47
2022-08-11T22:54:50.442Z,22.47
2022-08-11T22:57:08.616Z,22.44
2022-08-11T22:59:29.598Z,22.41
2022-08-11T23:01:55.423Z,22.40
2022-08-11T23:04:16.496Z,22.38
2022-08-11T23:06:34.855Z,22.35
2022-08-11T23:08:52.698Z,22.34
2022-08-11T23:11:11.420Z,22.32
2022-08-11T23:13:29.013Z,22.30
2022-08-11T23:15:49.989Z,22.32
2022-08-11T23:18:07.750Z,22.33
2022-08-11T23:20:33.325Z,22.32
2022-08-11T23:23:01.491Z,22.27
2022-08-11T23:25:19.117Z,22.26
2022-08-11T23:27:38.591Z,22.26
2022-08-11T23:30:01.126Z,22.18
2022-08-11T23:32:22.134Z,22.15
2022-08-11T23:35:37.350Z,22.13
2022-08-11T23:37:24.505Z,22.12
2022-08-11T23:39:41.976Z,22.11
2022-08-11T23:41:59.889Z,22.08
2022-08-11T23:44:17.857Z,22.07
2022-08-11T23:46:36.208Z,22.03
2022-08-11T23:48:56.895Z,22.01
2022-08-11T23:51:15.114Z,21.91
2022-08-11T23:53:33.557Z,21.91
2022-08-11T23:55:50.955Z,21.88
2022-08-11T23:58:10.357Z,21.85
